Time;durP1;ratioP1;P1;durP2;ratioP2;P2;SDS_P1;SDS_P2;PMS_P1;PMS_P2;Temp;Humidity;BMP_temperature;BMP_pressure;BME280_temperature;BME280_humidity;BME280_pressure;Samples;Min_cycle;Max_cycle;Signal;HPM_P1;HPM_P2
2022/10/05 00:01:27;;;;;;;;;;;11.60;63.80;;;7.15;100.00;96206.63;4986983;28;20407;-52
2022/10/05 00:04:19;;;;;;;;;;;11.50;63.80;;;7.19;100.00;96201.69;4972495;28;20009;-52
2022/10/05 00:06:56;;;;;;;;;;;11.60;64.00;;;7.19;100.00;96199.84;4972554;28;19913;-49
2022/10/05 00:09:23;;;;;;;;;;;11.60;64.00;;;7.13;100.00;96200.75;4972408;28;19916;-51
2022/10/05 00:11:52;;;;;;;;;;;11.60;64.00;;;7.13;100.00;96195.44;4988145;28;19914;-55
2022/10/05 00:14:40;;;;;;;;;;;11.50;64.00;;;7.10;100.00;96198.56;4987959;28;19909;-51
2022/10/05 00:17:12;;;;;;;;;;;11.50;64.00;;;7.08;100.00;96192.69;4978287;28;20397;-49
2022/10/05 00:19:43;;;;;;;;;;;11.50;64.00;;;7.02;100.00;96196.25;5005728;28;19963;-50
2022/10/05 00:22:24;;;;;;;;;;;11.50;64.00;;;7.05;100.00;96194.97;4991767;28;19919;-51
2022/10/05 00:24:57;;;;;;;;;;;11.50;64.10;;;7.08;100.00;96195.34;5003538;28;19914;-52
2022/10/05 00:27:35;;;;;;;;;;;11.50;64.20;;;7.05;100.00;96192.31;4972260;28;19953;-48
2022/10/05 00:30:18;;;;;;;;;;;11.50;64.20;;;7.01;100.00;96186.66;4971865;28;19916;-51
2022/10/05 00:32:45;;;;;;;;;;;11.50;64.20;;;6.97;100.00;96195.31;4991226;28;19910;-52
2022/10/05 00:35:14;;;;;;;;;;;11.40;64.10;;;6.90;100.00;96196.22;4975468;28;20370;-49
2022/10/05 00:37:54;;;;;;;;;;;11.40;64.10;;;6.88;100.00;96197.47;4990855;28;20680;-48
2022/10/05 00:40:55;;;;;;;;;;;11.40;64.20;;;6.90;100.00;96195.41;4992260;28;19925;-51
2022/10/05 00:43:35;;;;;;;;;;;11.40;64.30;;;6.86;100.00;96192.41;4991275;28;19910;-51
2022/10/05 00:46:43;;;;;;;;;;;11.30;64.20;;;6.80;100.00;96190.66;5007691;28;19913;-52
2022/10/05 00:50:03;;;;;;;;;;;11.30;64.30;;;6.76;100.00;96194.78;4996003;28;19913;-58
2022/10/05 00:53:19;;;;;;;;;;;11.20;64.30;;;6.77;100.00;96196.41;4992427;28;19913;-56
2022/10/05 00:56:39;;;;;;;;;;;11.20;64.50;;;6.78;100.00;96189.28;4985305;28;19940;-56
2022/10/05 00:59:11;;;;;;;;;;;11.20;64.60;;;6.85;100.00;96188.13;4950844;28;19914;-56
2022/10/05 01:02:15;;;;;;;;;;;11.20;64.70;;;6.89;100.00;96185.84;4970123;28;19910;-55
2022/10/05 01:04:58;;;;;;;;;;;11.20;64.80;;;6.85;100.00;96179.38;4985506;28;19914;-56
2022/10/05 01:07:50;;;;;;;;;;;11.20;64.90;;;6.85;100.00;96182.03;4979597;28;20287;-56
2022/10/05 01:11:02;;;;;;;;;;;11.20;64.90;;;6.89;100.00;96177.88;5006744;28;19979;-54
2022/10/05 01:14:03;;;;;;;;;;;11.30;64.90;;;6.93;100.00;96179.06;4995387;28;19910;-55
2022/10/05 01:17:10;;;;;;;;;;;11.30;65.00;;;6.89;100.00;96176.06;4983756;28;20265;-56
2022/10/05 01:20:22;;;;;;;;;;;11.30;65.00;;;6.90;100.00;96168.94;4976717;28;19916;-55
2022/10/05 01:23:48;;;;;;;;;;;11.30;65.00;;;6.88;100.00;96170.97;4990686;28;20418;-56
2022/10/05 01:27:00;;;;;;;;;;;11.30;64.90;;;6.89;100.00;96164.66;4961408;28;20272;-52
2022/10/05 01:29:55;;;;;;;;;;;11.30;65.00;;;6.90;100.00;96163.63;4991464;28;19909;-54
2022/10/05 01:33:11;;;;;;;;;;;11.30;65.00;;;6.83;100.00;96163.72;4986163;28;19910;-52
2022/10/05 01:35:42;;;;;;;;;;;11.30;65.00;;;6.79;100.00;96164.41;4983946;28;19910;-52
2022/10/05 01:38:51;;;;;;;;;;;11.30;65.00;;;6.78;100.00;96160.13;5005938;28;19920;-51
2022/10/05 01:42:05;;;;;;;;;;;11.30;65.80;;;6.73;100.00;96158.16;5003650;28;19948;-51
2022/10/05 01:44:42;;;;;;;;;;;11.20;65.00;;;6.68;100.00;96160.69;4972403;28;20381;-52
2022/10/05 01:47:43;;;;;;;;;;;11.10;64.90;;;6.68;100.00;96155.41;4972653;28;20630;-52
2022/10/05 01:50:40;;;;;;;;;;;11.20;65.00;;;6.62;100.00;96157.09;4983208;28;20011;-55
2022/10/05 01:53:46;;;;;;;;;;;11.10;65.00;;;6.57;100.00;96156.94;4981556;28;19916;-55
2022/10/05 01:56:28;;;;;;;;;;;11.10;65.00;;;6.55;100.00;96166.16;4982488;28;19914;-52
2022/10/05 01:59:04;;;;;;;;;;;11.10;65.10;;;6.52;100.00;96169.25;4986625;28;19950;-52
2022/10/05 02:01:44;;;;;;;;;;;11.00;65.10;;;6.53;100.00;96173.53;4979089;28;19909;-49
2022/10/05 02:04:45;;;;;;;;;;;11.00;65.20;;;6.51;100.00;96173.72;4990387;28;19917;-58
2022/10/05 02:07:53;;;;;;;;;;;11.00;65.20;;;6.43;100.00;96166.13;4987271;28;19921;-53
2022/10/05 02:10:24;;;;;;;;;;;11.00;65.20;;;6.40;100.00;96166.56;4989975;28;20386;-54
2022/10/05 02:13:03;;;;;;;;;;;10.90;65.10;;;6.36;100.00;96168.84;4990467;28;19914;-55
2022/10/05 02:15:43;;;;;;;;;;;10.90;65.20;;;6.36;100.00;96165.38;4990321;28;19909;-49
2022/10/05 02:18:24;;;;;;;;;;;10.90;65.30;;;6.36;100.00;96162.72;4990088;28;20411;-50
2022/10/05 02:20:54;;;;;;;;;;;10.90;65.40;;;6.39;100.00;96167.56;4992477;28;19913;-49
2022/10/05 02:23:40;;;;;;;;;;;10.90;65.40;;;6.31;100.00;96154.69;4970472;28;19914;-54
2022/10/05 02:26:10;;;;;;;;;;;10.80;65.30;;;6.24;100.00;96157.41;4984124;28;19981;-51
2022/10/05 02:29:01;;;;;;;;;;;10.80;65.30;;;6.18;100.00;96156.47;4993573;28;19921;-51
2022/10/05 02:32:03;;;;;;;;;;;10.70;65.20;;;6.11;100.00;96154.91;5011989;28;19980;-51
2022/10/05 02:34:42;;;;;;;;;;;10.70;65.20;;;6.07;100.00;96164.31;4988485;28;20330;-48
2022/10/05 02:37:30;;;;;;;;;;;10.70;65.20;;;6.00;100.00;96165.19;5005613;28;19967;-55
2022/10/05 02:40:39;;;;;;;;;;;10.60;65.30;;;5.98;100.00;96161.97;4981857;28;19925;-58
2022/10/05 02:43:22;;;;;;;;;;;10.60;65.40;;;5.96;100.00;96163.25;4994237;28;20389;-52
2022/10/05 02:46:21;;;;;;;;;;;10.60;65.50;;;5.92;100.00;96162.00;5010932;28;20366;-50
2022/10/05 02:49:19;;;;;;;;;;;10.50;65.50;;;5.87;100.00;96160.03;5005431;28;19956;-53
2022/10/05 02:52:25;;;;;;;;;;;10.50;65.60;;;5.89;100.00;96159.81;5006647;28;19917;-55
2022/10/05 02:55:42;;;;;;;;;;;10.50;65.60;;;5.90;100.00;96156.16;5011611;28;19913;-51
2022/10/05 02:58:19;;;;;;;;;;;10.40;65.80;;;5.89;100.00;96151.88;5029389;28;20409;-56
2022/10/05 03:01:32;;;;;;;;;;;10.40;65.90;;;5.91;100.00;96152.47;5024152;28;19913;-56
2022/10/05 03:04:34;;;;;;;;;;;10.40;65.90;;;5.92;100.00;96159.38;4999647;28;19945;-53
2022/10/05 03:07:17;;;;;;;;;;;10.40;66.00;;;5.89;100.00;96155.34;5008234;28;19944;-53
2022/10/05 03:10:04;;;;;;;;;;;10.40;66.00;;;5.87;100.00;96159.25;4992507;28;19916;-55
2022/10/05 03:13:21;;;;;;;;;;;10.40;66.00;;;5.82;100.00;96151.16;4982784;28;19913;-51
2022/10/05 03:16:28;;;;;;;;;;;10.40;65.90;;;5.76;100.00;96142.25;5000914;28;20378;-51
2022/10/05 03:19:40;;;;;;;;;;;10.40;65.90;;;5.75;100.00;96141.44;5004121;28;19949;-54
2022/10/05 03:22:46;;;;;;;;;;;10.30;66.00;;;5.74;100.00;96136.41;5013430;28;19916;-50
2022/10/05 03:25:42;;;;;;;;;;;10.30;66.00;;;5.71;100.00;96142.13;5005577;28;19914;-53
2022/10/05 03:28:17;;;;;;;;;;;10.30;66.10;;;5.68;100.00;96138.09;4998092;28;19962;-49
2022/10/05 03:31:34;;;;;;;;;;;10.20;66.00;;;5.66;100.00;96140.13;5009114;28;20015;-52
2022/10/05 03:34:24;;;;;;;;;;;10.20;66.00;;;5.66;100.00;96132.19;4949085;28;19949;-52
2022/10/05 03:37:18;;;;;;;;;;;10.20;66.10;;;5.68;100.00;96134.63;4992850;28;19916;-55
2022/10/05 03:40:14;;;;;;;;;;;10.20;66.20;;;5.71;100.00;96128.91;5025865;28;20375;-50
2022/10/05 03:42:48;;;;;;;;;;;10.20;66.20;;;5.73;100.00;96137.41;4994962;28;19941;-52
2022/10/05 03:45:58;;;;;;;;;;;10.20;66.30;;;5.88;100.00;96145.78;4993642;28;19921;-49
2022/10/05 03:49:11;;;;;;;;;;;10.20;66.40;;;5.90;100.00;96141.09;5005425;28;20357;-50
2022/10/05 03:51:58;;;;;;;;;;;10.30;66.60;;;5.86;100.00;96144.38;4991932;28;20000;-52
2022/10/05 03:54:45;;;;;;;;;;;10.30;66.60;;;5.87;100.00;96148.66;5001818;28;19963;-54
2022/10/05 03:57:22;;;;;;;;;;;10.30;66.60;;;5.95;100.00;96151.03;5004745;28;19920;-50
2022/10/05 04:00:14;;;;;;;;;;;10.30;66.70;;;5.92;100.00;96149.63;5027327;28;20454;-53
2022/10/05 04:03:03;;;;;;;;;;;10.40;66.60;;;5.90;100.00;96151.66;4989504;28;19920;-52
2022/10/05 04:05:49;;;;;;;;;;;10.40;66.60;;;5.90;100.00;96150.88;5025561;28;19913;-52
2022/10/05 04:09:02;;;;;;;;;;;10.40;66.50;;;5.85;100.00;96148.88;5007610;28;19913;-50
2022/10/05 04:12:01;;;;;;;;;;;10.30;66.40;;;5.84;100.00;96144.63;5025666;28;19908;-51
2022/10/05 04:14:55;;;;;;;;;;;10.30;66.50;;;5.82;100.00;96145.84;4980321;28;20008;-52
2022/10/05 04:17:39;;;;;;;;;;;10.30;66.50;;;5.82;100.00;96154.59;4982327;28;19912;-54
2022/10/05 04:20:19;;;;;;;;;;;10.30;66.60;;;5.84;100.00;96155.19;5016105;28;20333;-56
2022/10/05 04:23:42;;;;;;;;;;;10.30;66.50;;;5.82;100.00;96156.44;4994848;28;19983;-53
2022/10/05 04:26:48;;;;;;;;;;;10.30;66.50;;;5.83;100.00;96156.22;4992195;28;20515;-54
2022/10/05 04:29:46;;;;;;;;;;;10.30;66.60;;;5.88;100.00;96153.72;5010737;28;19924;-53
2022/10/05 04:32:36;;;;;;;;;;;10.30;66.70;;;5.88;100.00;96159.00;5009392;28;19910;-50
2022/10/05 04:35:37;;;;;;;;;;;10.30;66.70;;;5.87;100.00;96152.09;5026659;28;19975;-53
2022/10/05 04:38:25;;;;;;;;;;;10.30;66.70;;;5.86;100.00;96144.38;5002172;28;20023;-54
2022/10/05 04:41:34;;;;;;;;;;;10.30;66.70;;;5.82;100.00;96137.94;5011611;28;19921;-55
2022/10/05 04:44:30;;;;;;;;;;;10.30;66.70;;;5.78;100.00;96148.13;5012969;28;20336;-55
2022/10/05 04:47:39;;;;;;;;;;;10.30;66.70;;;5.75;100.00;96145.94;5006971;28;19909;-54
2022/10/05 04:50:41;;;;;;;;;;;10.30;66.70;;;5.69;100.00;96146.81;4990147;28;19920;-50
2022/10/05 04:53:52;;;;;;;;;;;10.30;66.70;;;5.69;100.00;96150.25;4972901;28;20391;-50
2022/10/05 04:56:48;;;;;;;;;;;10.30;66.70;;;5.68;100.00;96148.66;4977641;28;20288;-52
2022/10/05 04:59:25;;;;;;;;;;;10.20;66.70;;;5.68;100.00;96156.59;4997727;28;20014;-51
2022/10/05 05:02:23;;;;;;;;;;;10.20;66.70;;;5.71;100.00;96153.50;4989558;28;19909;-53
2022/10/05 05:05:18;;;;;;;;;;;10.20;66.90;;;5.67;100.00;96160.25;4991672;28;19913;-57
2022/10/05 05:08:33;;;;;;;;;;;10.20;66.80;;;5.60;100.00;96166.63;5001570;28;20381;-52
2022/10/05 05:12:02;;;;;;;;;;;10.20;66.80;;;5.52;100.00;96167.72;4971278;28;20276;-51
2022/10/05 05:14:58;;;;;;;;;;;10.20;66.70;;;5.54;100.00;96182.31;4972837;28;19913;-54
2022/10/05 05:17:44;;;;;;;;;;;10.20;66.70;;;5.56;100.00;96174.19;4969332;28;19917;-52
2022/10/05 05:21:05;;;;;;;;;;;10.20;66.70;;;5.56;100.00;96179.47;4979134;28;20470;-54
2022/10/05 05:23:41;;;;;;;;;;;10.10;66.70;;;5.56;100.00;96182.91;4971392;28;19913;-49
2022/10/05 05:26:49;;;;;;;;;;;10.10;66.70;;;5.63;100.00;96182.84;5005963;28;19913;-51
2022/10/05 05:29:41;;;;;;;;;;;10.10;66.90;;;5.62;100.00;96180.44;4972213;28;20055;-51
2022/10/05 05:33:06;;;;;;;;;;;10.10;66.90;;;5.61;100.00;96177.00;4979573;28;20277;-52
2022/10/05 05:35:49;;;;;;;;;;;10.10;66.90;;;5.64;100.00;96178.38;4986004;28;20000;-56
2022/10/05 05:38:39;;;;;;;;;;;10.20;67.00;;;5.66;100.00;96174.50;4990229;28;19917;-53
2022/10/05 05:41:46;;;;;;;;;;;10.20;67.00;;;5.67;100.00;96177.94;4990831;28;20012;-52
2022/10/05 05:44:41;;;;;;;;;;;10.20;67.00;;;5.67;100.00;96183.22;4989308;28;19917;-53
2022/10/05 05:47:23;;;;;;;;;;;10.20;67.00;;;5.65;100.00;96180.00;4986544;28;19920;-56
2022/10/05 05:50:01;;;;;;;;;;;10.20;67.00;;;5.68;100.00;96180.38;4984399;28;19917;-51
2022/10/05 05:52:59;;;;;;;;;;;10.20;67.00;;;5.70;100.00;96178.34;4993468;28;19949;-50
2022/10/05 05:55:37;;;;;;;;;;;10.30;67.10;;;5.74;100.00;96181.34;4983424;28;19920;-56
2022/10/05 05:58:19;;;;;;;;;;;10.30;67.00;;;5.77;100.00;96180.91;4986984;28;19972;-56
2022/10/05 06:01:04;;;;;;;;;;;10.30;67.00;;;5.79;100.00;96179.63;4985950;28;20417;-52
2022/10/05 06:04:00;;;;;;;;;;;10.40;67.10;;;5.83;100.00;96184.47;4971263;28;20334;-53
2022/10/05 06:06:40;;;;;;;;;;;10.40;67.00;;;5.82;100.00;96183.69;4970709;28;20016;-55
2022/10/05 06:09:40;;;;;;;;;;;10.40;67.00;;;5.85;100.00;96177.16;4983648;28;19909;-57
2022/10/05 06:12:28;;;;;;;;;;;10.50;67.00;;;5.89;100.00;96179.16;4981706;28;19917;-51
2022/10/05 06:15:15;;;;;;;;;;;10.50;67.00;;;5.98;100.00;96182.31;4978879;28;19913;-52
2022/10/05 06:17:51;;;;;;;;;;;10.60;67.20;;;6.01;100.00;96181.88;4990693;28;19917;-52
2022/10/05 06:20:52;;;;;;;;;;;10.60;67.10;;;6.07;100.00;96173.06;4988925;28;19910;-53
2022/10/05 06:23:33;;;;;;;;;;;10.60;67.10;;;6.09;100.00;96173.66;4968691;28;19917;-49
2022/10/05 06:26:27;;;;;;;;;;;10.70;67.10;;;6.13;100.00;96176.66;5002661;28;19918;-52
2022/10/05 06:29:04;;;;;;;;;;;10.80;67.10;;;6.26;100.00;96179.94;4985491;28;19909;-49
2022/10/05 06:31:51;;;;;;;;;;;10.80;67.20;;;6.37;100.00;96180.25;4984157;28;19910;-52
2022/10/05 06:34:58;;;;;;;;;;;10.90;67.20;;;6.46;100.00;96187.66;4993120;28;19967;-51
2022/10/05 06:38:05;;;;;;;;;;;11.00;67.20;;;6.56;100.00;96181.81;4926522;28;19941;-53
2022/10/05 06:41:22;;;;;;;;;;;11.10;67.30;;;6.62;100.00;96188.88;4985550;28;19917;-54
2022/10/05 06:44:29;;;;;;;;;;;11.20;67.30;;;6.69;100.00;96186.94;4985753;28;19960;-53
2022/10/05 06:47:06;;;;;;;;;;;11.30;67.30;;;6.76;100.00;96191.31;4900939;28;20976;-53
2022/10/05 06:50:06;;;;;;;;;;;11.40;67.30;;;6.85;100.00;96187.31;4987299;28;19917;-56
2022/10/05 06:53:00;;;;;;;;;;;11.50;67.30;;;6.95;100.00;96188.38;4990697;28;19909;-54
2022/10/05 06:56:07;;;;;;;;;;;11.60;67.20;;;7.01;100.00;96191.16;4989893;28;19956;-50
2022/10/05 06:58:56;;;;;;;;;;;11.70;67.20;;;7.05;100.00;96190.50;5004198;28;20283;-55
2022/10/05 07:02:03;;;;;;;;;;;11.80;67.20;;;7.13;100.00;96198.09;4988177;28;19947;-54
2022/10/05 07:04:47;;;;;;;;;;;11.90;67.00;;;7.23;100.00;96202.03;4990442;28;19914;-50
2022/10/05 07:07:28;;;;;;;;;;;12.00;67.10;;;7.32;100.00;96204.13;4989053;28;19909;-53
2022/10/05 07:10:17;;;;;;;;;;;12.20;67.00;;;7.45;100.00;96208.41;4990893;28;19909;-57
2022/10/05 07:12:54;;;;;;;;;;;12.40;67.00;;;7.68;100.00;96214.75;4958639;28;19910;-55
2022/10/05 07:15:48;;;;;;;;;;;12.70;66.80;;;7.94;100.00;96214.28;4989655;28;19956;-54
2022/10/05 07:18:39;;;;;;;;;;;13.10;66.60;;;8.35;100.00;96209.84;4982629;28;19910;-55
2022/10/05 07:21:40;;;;;;;;;;;13.60;66.40;;;8.74;100.00;96210.06;5008758;28;19913;-53
2022/10/05 07:24:28;;;;;;;;;;;14.00;66.30;;;9.23;100.00;96210.44;4989136;28;19914;-52
2022/10/05 07:27:06;;;;;;;;;;;14.50;66.80;;;9.65;100.00;96218.00;4993054;28;19909;-51
2022/10/05 07:29:44;;;;;;;;;;;15.00;65.90;;;9.98;100.00;96211.03;4996145;28;19909;-52
2022/10/05 07:32:35;;;;;;;;;;;15.50;65.50;;;10.47;100.00;96213.84;4998482;28;19990;-51
2022/10/05 07:39:02;;;;;;;;;;;16.70;64.90;;;11.37;98.23;96219.56;4999604;28;20424;-55
2022/10/05 07:41:46;;;;;;;;;;;17.40;64.30;;;11.85;95.76;96225.84;5008615;28;19917;-58
2022/10/05 07:44:42;;;;;;;;;;;17.90;64.00;;;12.13;89.25;96224.69;4982380;28;19924;-51
2022/10/05 07:47:59;;;;;;;;;;;18.40;63.50;;;12.38;84.61;96230.16;4991863;28;19916;-53
2022/10/05 07:50:56;;;;;;;;;;;19.00;62.90;;;12.68;82.72;96229.47;5005153;28;19910;-57
2022/10/05 07:54:01;;;;;;;;;;;19.40;62.30;;;13.12;80.99;96236.28;5008464;28;19909;-54
2022/10/05 07:56:43;;;;;;;;;;;19.90;61.70;;;13.53;77.05;96225.66;4971849;28;19931;-54
2022/10/05 07:59:55;;;;;;;;;;;20.30;61.40;;;13.99;75.20;96228.31;4993455;28;19917;-53
2022/10/05 08:02:34;;;;;;;;;;;20.70;60.90;;;14.21;71.93;96233.38;4991761;28;20283;-52
2022/10/05 08:05:23;;;;;;;;;;;21.20;60.30;;;14.57;70.58;96242.13;4992139;28;19920;-52
2022/10/05 08:08:24;;;;;;;;;;;21.50;59.70;;;14.98;68.22;96232.06;5007331;28;19909;-50
2022/10/05 08:11:12;;;;;;;;;;;21.90;59.20;;;15.31;66.31;96232.38;4992222;28;19916;-51
2022/10/05 08:13:54;;;;;;;;;;;22.20;58.80;;;15.79;65.96;96234.47;4992170;28;19909;-52
2022/10/05 08:16:30;;;;;;;;;;;22.60;58.50;;;16.18;65.37;96229.81;4991659;28;20719;-53
2022/10/05 08:19:07;;;;;;;;;;;23.00;58.20;;;16.55;62.95;96224.88;4989862;28;19920;-53
2022/10/05 08:22:12;;;;;;;;;;;23.40;58.50;;;16.80;61.49;96227.28;4988487;28;19910;-50
2022/10/05 08:25:08;;;;;;;;;;;23.90;57.40;;;17.19;60.18;96228.09;4952667;28;19914;-51
2022/10/05 08:28:03;;;;;;;;;;;24.20;56.90;;;17.30;59.23;96216.91;4991294;28;19910;-52
2022/10/05 08:31:06;;;;;;;;;;;24.60;56.30;;;17.58;58.28;96225.13;5006625;28;21490;-54
2022/10/05 08:34:36;;;;;;;;;;;24.80;55.80;;;17.97;58.36;96223.97;4990160;28;20336;-55
2022/10/05 08:37:31;;;;;;;;;;;25.20;55.20;;;18.47;56.72;96230.31;4980550;28;19909;-51
2022/10/05 08:40:20;;;;;;;;;;;25.50;54.80;;;18.73;55.30;96230.66;4972324;28;20021;-47
2022/10/05 08:43:31;;;;;;;;;;;25.80;54.40;;;19.03;54.67;96225.72;4989973;28;19933;-46
2022/10/05 08:46:36;;;;;;;;;;;26.10;53.90;;;19.28;53.70;96232.47;4972758;28;19914;-53
2022/10/05 08:50:03;;;;;;;;;;;26.40;53.60;;;19.72;52.83;96230.16;4957699;28;19932;-51
2022/10/05 08:52:49;;;;;;;;;;;26.80;53.10;;;20.16;51.83;96226.63;4952842;28;19910;-46
2022/10/05 08:55:45;;;;;;;;;;;27.20;52.70;;;20.37;51.27;96223.38;4992783;28;20256;-51
2022/10/05 08:59:00;;;;;;;;;;;27.40;52.20;;;20.84;50.25;96229.13;4991953;28;19920;-47
2022/10/05 09:02:29;;;;;;;;;;;27.80;51.80;;;20.98;50.40;96229.81;4989789;28;19909;-52
2022/10/05 09:05:34;;;;;;;;;;;28.10;51.40;;;21.27;50.37;96237.34;4992326;28;19924;-52
2022/10/05 09:08:30;;;;;;;;;;;28.50;51.00;;;21.41;50.66;96229.91;4989685;28;20299;-46
2022/10/05 09:11:33;;;;;;;;;;;28.80;50.10;;;21.33;47.72;96227.94;4990482;28;19917;-49
2022/10/05 09:14:51;;;;;;;;;;;28.90;49.40;;;21.54;47.00;96228.16;4979571;28;20316;-52
2022/10/05 09:17:27;;;;;;;;;;;29.00;49.10;;;21.56;46.62;96228.66;4987401;28;20403;-50
2022/10/05 09:20:26;;;;;;;;;;;29.10;48.80;;;22.05;46.52;96229.22;4973193;28;19910;-54
2022/10/05 09:22:59;;;;;;;;;;;29.30;48.70;;;22.47;47.00;96232.19;4987175;28;19909;-52
2022/10/05 09:25:46;;;;;;;;;;;29.50;48.40;;;22.94;45.66;96231.31;4978974;28;19999;-53
2022/10/05 09:28:47;;;;;;;;;;;29.80;48.20;;;23.32;45.08;96234.78;4991491;28;20369;-48
2022/10/05 09:31:50;;;;;;;;;;;30.20;48.00;;;23.48;42.96;96234.19;4989508;28;19916;-49
2022/10/05 09:34:56;;;;;;;;;;;30.40;47.40;;;23.64;42.99;96239.81;5007002;28;19913;-49
2022/10/05 09:37:59;;;;;;;;;;;30.60;46.80;;;23.96;44.20;96235.56;4974775;28;19910;-49
2022/10/05 09:41:21;;;;;;;;;;;30.90;46.60;;;24.08;42.81;96232.09;4990120;28;19925;-47
2022/10/05 09:44:02;;;;;;;;;;;31.10;46.30;;;24.16;41.54;96232.00;5005732;28;20000;-47
2022/10/05 09:46:58;;;;;;;;;;;31.30;46.10;;;24.24;41.20;96233.03;4991234;28;19976;-48
2022/10/05 09:50:36;;;;;;;;;;;31.50;45.50;;;24.18;41.26;96229.72;4984102;28;19914;-54
2022/10/05 09:53:53;;;;;;;;;;;31.60;45.10;;;24.29;39.65;96234.72;4984899;28;19909;-50
2022/10/05 09:57:03;;;;;;;;;;;31.80;44.60;;;24.37;40.95;96231.94;4984576;28;19913;-51
2022/10/05 10:00:07;;;;;;;;;;;31.90;44.20;;;24.39;38.01;96223.44;4978634;28;19913;-55
2022/10/05 10:02:37;;;;;;;;;;;32.00;43.90;;;24.42;39.59;96228.22;4983185;28;20004;-51
2022/10/05 10:05:54;;;;;;;;;;;32.10;43.30;;;24.62;39.67;96221.88;4986898;28;19925;-49
2022/10/05 10:08:23;;;;;;;;;;;32.20;43.20;;;24.66;40.52;96228.28;4953902;28;19910;-53
2022/10/05 10:11:25;;;;;;;;;;;32.40;43.10;;;24.73;38.88;96227.69;4988110;28;19909;-49
2022/10/05 10:14:24;;;;;;;;;;;32.50;42.80;;;24.81;38.65;96226.78;4989294;28;20356;-54
2022/10/05 10:17:02;;;;;;;;;;;32.70;42.60;;;24.90;38.69;96223.94;4993459;28;20009;-53
2022/10/05 10:20:05;;;;;;;;;;;32.80;42.50;;;24.85;39.11;96224.16;4980427;28;19910;-50
2022/10/05 10:22:56;;;;;;;;;;;33.00;42.20;;;25.09;38.61;96217.91;4998358;28;19909;-49
2022/10/05 10:26:02;;;;;;;;;;;33.00;41.60;;;24.99;39.05;96210.22;4975828;28;19944;-48
2022/10/05 10:29:13;;;;;;;;;;;33.10;41.50;;;25.09;39.02;96215.97;4990792;28;19909;-52
2022/10/05 10:32:03;;;;;;;;;;;33.20;41.20;;;25.15;38.03;96219.28;4985451;28;19960;-50
2022/10/05 10:35:03;;;;;;;;;;;33.30;41.00;;;25.55;38.40;96219.31;4991287;28;19923;-53
2022/10/05 10:38:05;;;;;;;;;;;33.40;40.80;;;25.82;38.47;96214.25;4987348;28;19913;-52
2022/10/05 10:41:14;;;;;;;;;;;33.70;40.80;;;25.89;38.11;96208.22;4978398;28;19921;-52
2022/10/05 10:44:20;;;;;;;;;;;33.90;40.40;;;25.98;38.08;96212.38;4992510;28;19910;-52
2022/10/05 10:47:33;;;;;;;;;;;34.00;39.90;;;25.89;37.09;96200.03;4991196;28;20004;-54
2022/10/05 10:50:53;;;;;;;;;;;34.10;39.70;;;25.63;38.04;96209.41;4933315;29;20459;-49
2022/10/05 10:54:22;;;;;;;;;;;34.10;38.70;;;25.55;38.20;96219.31;4934946;29;19910;-50
2022/10/05 10:57:05;;;;;;;;;;;33.90;38.20;;;25.86;38.06;96209.69;4942893;28;19941;-49
2022/10/05 11:00:14;;;;;;;;;;;34.00;38.40;;;26.16;36.33;96209.31;4989752;28;19916;-54
2022/10/05 11:03:48;;;;;;;;;;;34.20;38.50;;;26.18;37.49;96204.31;4983128;28;20654;-53
2022/10/05 11:06:47;;;;;;;;;;;34.20;38.30;;;26.24;36.70;96206.44;4980856;28;19941;-48
2022/10/05 11:10:15;;;;;;;;;;;34.40;38.00;;;26.25;37.65;96201.75;5009863;28;19917;-47
2022/10/05 11:13:23;;;;;;;;;;;34.40;37.70;;;26.28;37.79;96196.38;4985017;28;19913;-47
2022/10/05 11:16:12;;;;;;;;;;;34.70;37.70;;;26.31;37.14;96194.88;4993175;28;19909;-47
2022/10/05 11:19:37;;;;;;;;;;;34.80;37.50;;;26.27;36.28;96180.38;4974295;28;20501;-50
2022/10/05 11:23:00;;;;;;;;;;;34.90;36.90;;;26.39;36.82;96188.47;4999342;28;19916;-48
2022/10/05 11:26:12;;;;;;;;;;;34.80;36.30;;;26.61;36.00;96184.38;4953561;28;19920;-49
2022/10/05 11:29:05;;;;;;;;;;;35.00;36.40;;;26.60;37.00;96185.50;4961519;28;20440;-50
2022/10/05 11:32:01;;;;;;;;;;;35.10;36.10;;;26.83;36.97;96182.94;4996459;28;19917;-48
2022/10/05 11:34:54;;;;;;;;;;;35.10;35.90;;;26.69;35.76;96168.91;4989470;28;19913;-48
2022/10/05 11:38:11;;;;;;;;;;;35.10;35.50;;;26.94;36.21;96170.28;4986613;28;19910;-52
2022/10/05 11:40:54;;;;;;;;;;;35.20;35.20;;;27.19;36.96;96173.59;4981769;28;19917;-47
2022/10/05 11:44:03;;;;;;;;;;;35.30;35.30;;;27.52;34.25;96171.56;4992731;28;19923;-51
2022/10/05 11:47:19;;;;;;;;;;;35.50;35.50;;;27.14;35.24;96162.16;5008966;28;19914;-54
2022/10/05 11:50:15;;;;;;;;;;;35.70;34.80;;;26.97;35.12;96158.63;4978306;28;20240;-52
2022/10/05 11:53:37;;;;;;;;;;;35.80;34.80;;;26.87;35.03;96159.19;5008862;28;20031;-52
2022/10/05 11:56:21;;;;;;;;;;;35.80;34.10;;;26.87;34.86;96151.00;4992818;28;19910;-51
2022/10/05 11:59:22;;;;;;;;;;;35.70;33.60;;;27.13;35.10;96149.59;4992707;28;19917;-52
2022/10/05 12:02:05;;;;;;;;;;;35.70;33.60;;;27.42;35.08;96146.34;4982302;28;19909;-58
2022/10/05 12:05:10;;;;;;;;;;;35.90;33.80;;;27.75;34.19;96131.34;5003481;28;19924;-48
2022/10/05 12:07:50;;;;;;;;;;;36.10;33.80;;;27.74;34.77;96140.72;4983939;28;19949;-49
2022/10/05 12:10:31;;;;;;;;;;;36.20;33.40;;;28.01;34.01;96133.41;4995021;28;19915;-55
2022/10/05 12:13:36;;;;;;;;;;;36.30;33.70;;;28.33;32.64;96131.25;5008058;28;19913;-51
2022/10/05 12:16:50;;;;;;;;;;;36.50;33.80;;;28.19;33.44;96136.47;4995512;28;19913;-54
2022/10/05 12:19:57;;;;;;;;;;;36.60;33.60;;;27.85;33.85;96128.03;4977547;28;19909;-49
2022/10/05 12:22:51;;;;;;;;;;;36.70;33.10;;;27.77;33.90;96122.78;5008659;28;19916;-50
2022/10/05 12:25:56;;;;;;;;;;;36.70;32.40;;;28.02;33.67;96126.81;4988105;28;20016;-48
2022/10/05 12:29:26;;;;;;;;;;;36.70;32.40;;;28.13;33.83;96113.28;5004311;28;19959;-49
2022/10/05 12:32:10;;;;;;;;;;;36.80;32.20;;;28.17;34.19;96119.59;4975272;28;19910;-55
2022/10/05 12:35:04;;;;;;;;;;;36.90;32.00;;;28.54;32.88;96113.59;5023026;28;20011;-49
2022/10/05 12:38:14;;;;;;;;;;;37.00;32.20;;;28.40;33.00;96116.09;5003139;28;19956;-50
2022/10/05 12:41:32;;;;;;;;;;;37.10;32.10;;;28.35;33.67;96106.22;5010529;28;19921;-51
2022/10/05 12:44:24;;;;;;;;;;;37.10;32.00;;;28.30;32.50;96118.28;4995922;28;20272;-50
2022/10/05 12:47:19;;;;;;;;;;;37.20;31.90;;;28.18;33.07;96110.25;5026146;28;19948;-52
2022/10/05 12:50:15;;;;;;;;;;;37.20;31.40;;;28.09;33.16;96109.69;5009667;28;19941;-50
2022/10/05 12:53:38;;;;;;;;;;;37.20;31.50;;;27.78;33.87;96102.50;5012224;28;19916;-51
2022/10/05 12:56:51;;;;;;;;;;;37.20;31.20;;;27.78;34.18;96103.28;5005654;28;20032;-50
2022/10/05 12:59:54;;;;;;;;;;;37.00;31.10;;;27.62;32.87;96095.16;4992681;28;19975;-55
2022/10/05 13:02:56;;;;;;;;;;;36.90;30.70;;;27.57;34.17;96102.84;4996333;28;19955;-49
2022/10/05 13:06:08;;;;;;;;;;;36.80;30.60;;;27.64;33.62;96101.06;5023162;28;19913;-53
2022/10/05 13:09:05;;;;;;;;;;;36.70;30.80;;;27.64;34.04;96100.25;4989347;28;27816;-52
2022/10/05 13:11:56;;;;;;;;;;;36.70;30.90;;;27.42;34.35;96099.88;4992466;28;19916;-52
2022/10/05 13:14:48;;;;;;;;;;;36.60;30.80;;;27.59;35.24;96100.56;5019594;28;19978;-55
2022/10/05 13:17:54;;;;;;;;;;;36.70;30.30;;;28.04;33.49;96094.34;5026223;28;19913;-54
2022/10/05 13:20:52;;;;;;;;;;;36.70;30.50;;;28.36;33.03;96089.44;5001659;28;19909;-55
2022/10/05 13:23:48;;;;;;;;;;;36.70;30.70;;;28.55;33.41;96101.44;5010301;28;19916;-54
2022/10/05 13:26:30;;;;;;;;;;;36.70;30.70;;;28.21;32.28;96086.81;5011596;28;19957;-52
2022/10/05 13:29:03;;;;;;;;;;;36.70;30.60;;;28.42;33.35;96084.44;5010929;28;20004;-51
2022/10/05 13:31:59;;;;;;;;;;;36.70;30.70;;;28.31;32.83;96086.19;5007115;28;20425;-50
2022/10/05 13:34:53;;;;;;;;;;;36.80;30.70;;;28.36;32.32;96085.88;5007161;28;19963;-53